createdAt,value
2019-03-03T00:01:22.390Z,99976.32
2019-03-03T00:03:50.331Z,99981.44
2019-03-03T00:06:17.472Z,99980.38
2019-03-03T00:08:44.990Z,99980.07
2019-03-03T00:11:13.545Z,99970.19
2019-03-03T00:13:40.237Z,99977.10
2019-03-03T00:16:07.621Z,99967.70
2019-03-03T00:18:34.946Z,99976.63
2019-03-03T00:21:09.941Z,99975.77
2019-03-03T00:23:39.617Z,99972.97
2019-03-03T00:26:07.067Z,99979.21
2019-03-03T00:28:33.883Z,99979.80
2019-03-03T00:31:02.202Z,99972.42
2019-03-03T00:33:29.953Z,99969.53
2019-03-03T00:35:57.722Z,99962.04
2019-03-03T00:38:46.802Z,99962.04
2019-03-03T00:41:36.050Z,99956.84
2019-03-03T00:44:13.064Z,99949.04
2019-03-03T00:46:50.682Z,99942.32
2019-03-03T00:49:37.230Z,99941.34
2019-03-03T00:52:25.058Z,99931.92
2019-03-03T00:55:18.443Z,99924.63
2019-03-03T00:58:05.106Z,99920.59
2019-03-03T01:00:43.603Z,99912.97
2019-03-03T01:03:16.198Z,99909.60
2019-03-03T01:05:54.834Z,99898.90
2019-03-03T01:08:38.579Z,99900.72
2019-03-03T01:11:37.653Z,99900.13
2019-03-03T01:14:27.056Z,99906.48
2019-03-03T01:17:13.474Z,99896.28
2019-03-03T01:19:58.162Z,99901.36
2019-03-03T01:23:00.155Z,99890.68
2019-03-03T01:25:27.547Z,99887.90
2019-03-03T01:27:54.790Z,99869.80
2019-03-03T01:30:21.569Z,99878.08
2019-03-03T01:32:49.008Z,99879.66
2019-03-03T01:35:16.040Z,99870.91
2019-03-03T01:37:43.073Z,99865.59
2019-03-03T01:40:10.345Z,99864.84
2019-03-03T01:42:37.675Z,99865.63
2019-03-03T01:45:06.521Z,99856.70
2019-03-03T01:47:34.046Z,99854.27
2019-03-03T01:50:00.718Z,99843.70
2019-03-03T01:52:28.461Z,99839.63
2019-03-03T01:54:55.469Z,99833.94
2019-03-03T01:57:22.397Z,99834.02
2019-03-03T01:59:50.311Z,99823.26
2019-03-03T02:02:17.642Z,99828.27
2019-03-03T02:04:44.810Z,99815.54
2019-03-03T02:07:12.152Z,99814.19
2019-03-03T02:09:39.461Z,99807.42
2019-03-03T02:12:06.750Z,99803.92
2019-03-03T02:14:34.735Z,99793.13
2019-03-03T02:17:04.310Z,99785.63
2019-03-03T02:19:31.810Z,99787.55
2019-03-03T02:21:58.649Z,99779.08
2019-03-03T02:24:26.092Z,99788.57
2019-03-03T02:26:52.869Z,99782.56
2019-03-03T02:29:19.641Z,99783.34
2019-03-03T02:31:47.344Z,99780.52
2019-03-03T02:34:14.584Z,99784.77
2019-03-03T02:36:41.637Z,99780.69
2019-03-03T02:39:13.706Z,99785.64
2019-03-03T02:41:41.304Z,99785.25
2019-03-03T02:44:07.947Z,99779.48
2019-03-03T02:46:34.872Z,99768.76
2019-03-03T02:49:01.660Z,99764.61
2019-03-03T02:51:28.733Z,99766.98
2019-03-03T02:53:55.415Z,99751.24
2019-03-03T02:56:23.147Z,99757.89
2019-03-03T02:58:50.111Z,99754.31
2019-03-03T03:01:24.876Z,99741.00
2019-03-03T03:03:52.324Z,99739.75
2019-03-03T03:06:47.800Z,99735.70
2019-03-03T03:09:20.497Z,99733.83
2019-03-03T03:11:58.147Z,99731.33
2019-03-03T03:14:43.783Z,99723.52
2019-03-03T03:17:28.253Z,99724.94
2019-03-03T03:20:02.827Z,99721.55
2019-03-03T03:22:47.385Z,99724.15
2019-03-03T03:25:32.312Z,99719.70
2019-03-03T03:28:13.992Z,99724.84
2019-03-03T03:31:04.681Z,99717.09
2019-03-03T03:33:47.455Z,99723.91
2019-03-03T03:36:32.419Z,99719.23
2019-03-03T03:39:09.684Z,99717.09
2019-03-03T03:41:59.677Z,99705.08
2019-03-03T03:44:37.647Z,99705.40
2019-03-03T03:47:27.774Z,99696.14
2019-03-03T03:50:02.897Z,99712.91
2019-03-03T03:52:58.424Z,99692.55
2019-03-03T03:55:44.299Z,99696.30
2019-03-03T03:58:20.136Z,99695.52
2019-03-03T04:01:06.953Z,99683.16
2019-03-03T04:03:47.942Z,99675.25
2019-03-03T04:06:34.402Z,99680.20
2019-03-03T04:09:13.488Z,99663.13
2019-03-03T04:11:53.382Z,99670.73
2019-03-03T04:14:46.269Z,99662.03
2019-03-03T04:17:25.306Z,99649.45
2019-03-03T04:20:02.345Z,99648.75
2019-03-03T04:22:55.346Z,99636.69
2019-03-03T04:25:32.500Z,99644.36
2019-03-03T04:28:23.633Z,99635.99
2019-03-03T04:30:57.026Z,99637.77
2019-03-03T04:33:43.375Z,99633.70
2019-03-03T04:36:33.375Z,99625.88
2019-03-03T04:39:29.270Z,99623.69
2019-03-03T04:42:18.365Z,99620.00
2019-03-03T04:45:07.674Z,99604.20
2019-03-03T04:47:58.076Z,99607.56
2019-03-03T04:50:43.169Z,99600.84
2019-03-03T04:53:28.813Z,99606.95
2019-03-03T04:56:07.637Z,99592.26
2019-03-03T04:58:54.495Z,99600.23
2019-03-03T05:01:31.201Z,99595.09
2019-03-03T05:04:12.660Z,99576.24
2019-03-03T05:06:51.952Z,99577.89
2019-03-03T05:09:53.989Z,99574.83
2019-03-03T05:12:48.382Z,99569.13
2019-03-03T05:15:54.751Z,99576.14
2019-03-03T05:18:37.690Z,99564.82
2019-03-03T05:21:04.642Z,99573.36
2019-03-03T05:23:31.891Z,99565.54
2019-03-03T05:25:58.746Z,99564.14
2019-03-03T05:28:25.431Z,99573.44
2019-03-03T05:30:52.214Z,99553.88
2019-03-03T05:33:19.670Z,99561.39
2019-03-03T05:35:46.934Z,99556.39
2019-03-03T05:38:13.980Z,99555.84
2019-03-03T05:40:41.414Z,99546.70
2019-03-03T05:43:09.122Z,99540.84
2019-03-03T05:45:36.345Z,99538.02
2019-03-03T05:48:04.422Z,99536.94
2019-03-03T05:50:31.241Z,99537.08
2019-03-03T05:52:58.539Z,99539.58
2019-03-03T05:55:25.321Z,99545.04
2019-03-03T05:57:52.718Z,99535.59
2019-03-03T06:00:19.532Z,99542.47
2019-03-03T06:02:47.534Z,99535.63
2019-03-03T06:05:14.750Z,99536.88
2019-03-03T06:07:42.003Z,99533.33
2019-03-03T06:10:10.509Z,99526.69
2019-03-03T06:12:37.291Z,99529.58
2019-03-03T06:15:05.534Z,99522.14
2019-03-03T06:17:32.243Z,99512.08
2019-03-03T06:19:59.908Z,99517.54
2019-03-03T06:22:27.357Z,99523.33
2019-03-03T06:24:54.595Z,99510.04
2019-03-03T06:27:22.304Z,99519.58
2019-03-03T06:29:49.322Z,99518.59
2019-03-03T06:32:16.656Z,99517.86
2019-03-03T06:34:44.455Z,99523.16
2019-03-03T06:37:11.130Z,99520.20
2019-03-03T06:39:38.353Z,99521.84
2019-03-03T06:42:05.152Z,99525.20
2019-03-03T06:44:31.815Z,99519.11
2019-03-03T06:46:59.062Z,99521.54
2019-03-03T06:49:26.749Z,99514.51
2019-03-03T06:51:53.511Z,99515.83
2019-03-03T06:54:20.417Z,99511.44
2019-03-03T06:56:47.357Z,99511.14
2019-03-03T06:59:14.407Z,99511.67
2019-03-03T07:01:41.085Z,99506.67
2019-03-03T07:04:08.261Z,99504.34
2019-03-03T07:06:35.865Z,99519.57
2019-03-03T07:09:04.611Z,99509.02
2019-03-03T07:11:33.175Z,99515.83
2019-03-03T07:13:59.853Z,99519.57
2019-03-03T07:16:27.197Z,99516.38
2019-03-03T07:18:54.257Z,99518.33
2019-03-03T07:21:21.309Z,99522.92
2019-03-03T07:23:48.989Z,99527.93
2019-03-03T07:26:16.034Z,99523.78
2019-03-03T07:28:43.061Z,99527.53
2019-03-03T07:31:10.564Z,99519.73
2019-03-03T07:33:39.929Z,99518.88
2019-03-03T07:36:06.602Z,99524.73
2019-03-03T07:38:34.058Z,99528.95
2019-03-03T07:41:00.831Z,99523.25
2019-03-03T07:43:28.549Z,99531.77
2019-03-03T07:45:55.246Z,99531.77
2019-03-03T07:48:22.174Z,99525.45
2019-03-03T07:50:49.745Z,99528.97
2019-03-03T07:53:17.970Z,99529.98
2019-03-03T07:55:45.046Z,99536.77
2019-03-03T07:58:11.990Z,99533.80
2019-03-03T08:00:39.635Z,99532.88
2019-03-03T08:03:06.414Z,99515.52
2019-03-03T08:05:33.723Z,99522.93
2019-03-03T08:08:00.870Z,99521.77
2019-03-03T08:10:28.137Z,99510.50
2019-03-03T08:12:55.641Z,99510.95
2019-03-03T08:15:23.014Z,99504.46
2019-03-03T08:17:50.461Z,99519.11
2019-03-03T08:20:17.573Z,99518.16
2019-03-03T08:22:44.541Z,99511.77
2019-03-03T08:25:12.665Z,99524.40
2019-03-03T08:27:40.881Z,99537.06
2019-03-03T08:30:08.795Z,99524.41
2019-03-03T08:32:36.061Z,99525.50
2019-03-03T08:35:04.832Z,99533.17
2019-03-03T08:37:31.859Z,99519.41
2019-03-03T08:39:59.280Z,99520.31
2019-03-03T08:42:52.134Z,99527.46
2019-03-03T08:45:37.804Z,99526.64
2019-03-03T08:48:23.222Z,99536.20
2019-03-03T08:50:57.912Z,99533.91
2019-03-03T08:53:29.832Z,99530.77
2019-03-03T08:56:22.892Z,99533.20
2019-03-03T08:59:05.829Z,99541.02
2019-03-03T09:01:43.376Z,99534.36
2019-03-03T09:04:28.469Z,99537.84
2019-03-03T09:07:15.588Z,99543.77
2019-03-03T09:10:09.781Z,99546.42
2019-03-03T09:12:44.906Z,99539.31
2019-03-03T09:15:29.175Z,99557.38
2019-03-03T09:18:14.588Z,99550.36
2019-03-03T09:21:03.994Z,99543.92
2019-03-03T09:24:02.379Z,99551.13
2019-03-03T09:26:39.981Z,99538.61
2019-03-03T09:29:36.374Z,99566.70
2019-03-03T09:32:31.962Z,99547.83
2019-03-03T09:35:20.812Z,99544.23
2019-03-03T09:37:57.231Z,99548.59
2019-03-03T09:40:52.786Z,99544.69
2019-03-03T09:43:54.812Z,99545.39
2019-03-03T09:46:35.304Z,99553.97
2019-03-03T09:49:24.946Z,99558.98
2019-03-03T09:52:05.500Z,99552.17
2019-03-03T09:54:44.162Z,99555.31
2019-03-03T09:57:36.391Z,99553.97
2019-03-03T10:00:39.766Z,99560.32
2019-03-03T10:03:35.074Z,99559.77
2019-03-03T10:06:27.339Z,99556.26
2019-03-03T10:09:13.310Z,99555.70
2019-03-03T10:12:15.530Z,99567.53
2019-03-03T10:15:08.725Z,99569.48
2019-03-03T10:17:57.206Z,99578.64
2019-03-03T10:20:46.829Z,99573.14
2019-03-03T10:23:33.955Z,99570.98
2019-03-03T10:26:25.881Z,99583.41
2019-03-03T10:29:15.483Z,99577.08
2019-03-03T10:32:00.630Z,99568.47
2019-03-03T10:34:39.705Z,99570.67
2019-03-03T10:37:34.980Z,99569.72
2019-03-03T10:40:21.801Z,99563.06
2019-03-03T10:43:17.454Z,99563.28
2019-03-03T10:46:15.702Z,99573.67
2019-03-03T10:49:08.599Z,99568.11
2019-03-03T10:51:41.558Z,99565.14
2019-03-03T10:54:17.336Z,99571.56
2019-03-03T10:57:09.801Z,99577.48
2019-03-03T11:00:08.057Z,99571.92
2019-03-03T11:02:42.071Z,99566.16
2019-03-03T11:05:22.910Z,99561.81
2019-03-03T11:08:10.114Z,99564.16
2019-03-03T11:11:08.822Z,99573.63
2019-03-03T11:13:53.955Z,99573.63
2019-03-03T11:16:34.457Z,99570.97
2019-03-03T11:19:09.550Z,99572.31
2019-03-03T11:22:02.544Z,99567.67
2019-03-03T11:24:49.126Z,99582.94
2019-03-03T11:27:34.125Z,99580.33
2019-03-03T11:30:10.490Z,99583.70
2019-03-03T11:32:44.386Z,99578.42
2019-03-03T11:35:27.670Z,99564.31
2019-03-03T11:38:14.094Z,99571.19
2019-03-03T11:40:51.116Z,99571.52
2019-03-03T11:43:37.673Z,99569.27
2019-03-03T11:46:27.557Z,99565.45
2019-03-03T11:49:03.114Z,99573.81
2019-03-03T11:51:43.923Z,99576.41
2019-03-03T11:54:20.016Z,99562.48
2019-03-03T11:57:03.500Z,99560.78
2019-03-03T11:59:56.126Z,99566.25
2019-03-03T12:02:41.325Z,99560.08
2019-03-03T12:05:29.290Z,99562.25
2019-03-03T12:08:04.927Z,99555.31
2019-03-03T12:10:54.023Z,99550.77
2019-03-03T12:13:35.839Z,99560.78
2019-03-03T12:16:21.343Z,99545.81
2019-03-03T12:19:19.803Z,99540.25
2019-03-03T12:22:12.259Z,99545.47
2019-03-03T12:25:08.012Z,99541.50
2019-03-03T12:28:12.954Z,99549.47
2019-03-03T12:31:09.071Z,99542.51
2019-03-03T12:33:48.274Z,99544.57
2019-03-03T12:36:22.658Z,99544.57
2019-03-03T12:39:01.222Z,99539.41
2019-03-03T12:41:49.616Z,99532.95
2019-03-03T12:44:28.180Z,99530.73
2019-03-03T12:47:32.587Z,99524.77
2019-03-03T12:50:10.266Z,99526.13
2019-03-03T12:52:48.079Z,99525.07
2019-03-03T12:55:37.422Z,99525.07
2019-03-03T12:58:16.913Z,99516.24
2019-03-03T13:01:18.622Z,99515.05
2019-03-03T13:03:55.831Z,99514.11
2019-03-03T13:06:49.529Z,99505.08
2019-03-03T13:09:41.946Z,99502.66
2019-03-03T13:12:15.082Z,99491.44
2019-03-03T13:15:01.039Z,99491.44
2019-03-03T13:17:48.539Z,99497.14
2019-03-03T13:20:38.036Z,99493.58
2019-03-03T13:26:45.027Z,99475.03
2019-03-03T13:29:37.996Z,99480.50
2019-03-03T13:32:21.616Z,99480.50
2019-03-03T13:35:07.598Z,99478.62
2019-03-03T13:37:45.022Z,99478.48
2019-03-03T13:40:40.694Z,99466.23
2019-03-03T13:43:07.386Z,99466.23
2019-03-03T13:45:35.474Z,99469.85
2019-03-03T13:48:02.799Z,99463.45
2019-03-03T13:50:30.782Z,99421.05
2019-03-03T13:52:57.930Z,99457.58
2019-03-03T13:55:25.500Z,99457.58
2019-03-03T13:57:52.738Z,99449.17
2019-03-03T14:00:20.891Z,99450.91
2019-03-03T14:02:49.150Z,99439.89
2019-03-03T14:05:18.111Z,99439.89
2019-03-03T14:07:45.338Z,99431.38
2019-03-03T14:10:12.321Z,99433.68
2019-03-03T14:12:40.338Z,99432.29
2019-03-03T14:15:09.024Z,99438.91
2019-03-03T14:17:36.829Z,99431.84
2019-03-03T14:20:08.444Z,99433.41
2019-03-03T14:22:35.917Z,99421.27
2019-03-03T14:25:04.182Z,99422.33
2019-03-03T14:27:31.846Z,99418.71
2019-03-03T14:29:59.002Z,99414.67
2019-03-03T14:32:25.696Z,99414.63
2019-03-03T14:34:52.787Z,99407.42
2019-03-03T14:37:21.028Z,99408.23
2019-03-03T14:39:48.379Z,99395.66
2019-03-03T14:42:16.084Z,99405.33
2019-03-03T14:44:43.846Z,99404.55
2019-03-03T14:47:11.294Z,99392.88
2019-03-03T14:49:39.137Z,99408.09
2019-03-03T14:52:06.576Z,99388.86
2019-03-03T14:54:33.367Z,99380.07
2019-03-03T14:57:00.446Z,99380.07
2019-03-03T14:59:28.383Z,99357.52
2019-03-03T15:01:56.543Z,99357.52
2019-03-03T15:04:24.232Z,99359.30
2019-03-03T15:06:51.882Z,99361.57
2019-03-03T15:09:20.956Z,99361.57
2019-03-03T15:11:48.378Z,99354.25
2019-03-03T15:14:15.730Z,99355.86
2019-03-03T15:16:43.231Z,99350.27
2019-03-03T15:19:10.494Z,99343.78
2019-03-03T15:21:37.846Z,99343.78
2019-03-03T15:24:05.580Z,99338.27
2019-03-03T15:26:32.377Z,99333.12
2019-03-03T15:29:00.437Z,99333.12
2019-03-03T15:31:37.325Z,99328.11
2019-03-03T15:33:57.754Z,99330.92
2019-03-03T15:36:25.029Z,99324.39
2019-03-03T15:38:52.493Z,99323.14
2019-03-03T15:41:19.531Z,99327.70
2019-03-03T15:43:46.529Z,99313.41
2019-03-03T15:46:13.267Z,99321.52
2019-03-03T15:48:42.208Z,99329.70
2019-03-03T15:51:09.570Z,99310.23
2019-03-03T15:53:37.235Z,99310.23
2019-03-03T15:56:06.032Z,99312.79
2019-03-03T15:58:33.042Z,99311.88
2019-03-03T16:01:00.527Z,99308.58
2019-03-03T16:03:27.333Z,99304.64
2019-03-03T16:05:54.935Z,99300.61
2019-03-03T16:08:22.089Z,99293.69
2019-03-03T16:10:50.150Z,99284.92
2019-03-03T16:13:17.467Z,99288.67
2019-03-03T16:15:45.354Z,99282.94
2019-03-03T16:18:13.169Z,99279.64
2019-03-03T16:20:40.623Z,99279.64
2019-03-03T16:23:08.669Z,99270.73
2019-03-03T16:25:35.474Z,99268.63
2019-03-03T16:28:03.162Z,99263.75
2019-03-03T16:30:30.730Z,99259.20
2019-03-03T16:32:57.471Z,99254.98
2019-03-03T16:35:24.094Z,99254.98
2019-03-03T16:37:51.274Z,99246.48
2019-03-03T16:40:19.943Z,99239.91
2019-03-03T16:42:47.910Z,99241.30
2019-03-03T16:45:16.152Z,99234.38
2019-03-03T16:47:43.325Z,99234.02
2019-03-03T16:50:12.703Z,99229.17
2019-03-03T16:52:39.833Z,99226.27
2019-03-03T16:55:07.800Z,99228.95
2019-03-03T16:57:35.022Z,99222.56
2019-03-03T17:00:02.095Z,99225.52
2019-03-03T17:02:29.535Z,99215.22
2019-03-03T17:04:56.294Z,99214.98
2019-03-03T17:07:23.977Z,99211.23
2019-03-03T17:09:50.869Z,99206.67
2019-03-03T17:12:18.622Z,99202.29
2019-03-03T17:14:45.557Z,99195.89
2019-03-03T17:17:12.706Z,99187.38
2019-03-03T17:19:40.484Z,99189.95
2019-03-03T17:22:07.884Z,99187.76
2019-03-03T17:24:35.295Z,99185.70
2019-03-03T17:27:03.199Z,99165.17
2019-03-03T17:29:31.431Z,99167.28
2019-03-03T17:31:58.754Z,99161.27
2019-03-03T17:34:27.383Z,99161.27
2019-03-03T17:36:55.710Z,99160.18
2019-03-03T17:39:22.789Z,99161.95
2019-03-03T17:41:50.451Z,99162.45
2019-03-03T17:44:17.479Z,99153.78
2019-03-03T17:46:44.797Z,99150.31
2019-03-03T17:49:13.023Z,99155.48
2019-03-03T17:51:41.411Z,99145.13
2019-03-03T17:54:08.841Z,99141.70
2019-03-03T17:56:36.556Z,99141.70
2019-03-03T17:59:04.326Z,99143.39
2019-03-03T18:01:31.998Z,99143.88
2019-03-03T18:03:59.465Z,99143.88
2019-03-03T18:06:27.782Z,99137.37
2019-03-03T18:08:55.854Z,99130.66
2019-03-03T18:11:23.214Z,99131.22
2019-03-03T18:13:50.786Z,99117.31
2019-03-03T18:16:18.310Z,99117.31
2019-03-03T18:18:46.505Z,99125.52
2019-03-03T18:21:14.516Z,99118.45
2019-03-03T18:23:42.174Z,99117.19
2019-03-03T18:26:10.107Z,99105.05
2019-03-03T18:28:37.673Z,99107.97
2019-03-03T18:31:05.323Z,99101.30
2019-03-03T18:33:32.364Z,99087.19
2019-03-03T18:35:59.947Z,99098.67
2019-03-03T18:38:28.316Z,99102.84
2019-03-03T18:40:55.443Z,99089.48
2019-03-03T18:43:23.437Z,99089.48
2019-03-03T18:45:50.462Z,99086.98
2019-03-03T18:48:18.045Z,99088.59
2019-03-03T18:50:44.993Z,99085.13
2019-03-03T18:53:11.685Z,99075.91
2019-03-03T18:55:38.727Z,99073.33
2019-03-03T18:58:06.359Z,99075.79
2019-03-03T19:00:34.698Z,99074.41
2019-03-03T19:03:02.244Z,99069.64
2019-03-03T19:05:29.534Z,99068.27
2019-03-03T19:07:57.820Z,99069.97
2019-03-03T19:10:43.126Z,99079.11
2019-03-03T19:13:10.831Z,99062.86
2019-03-03T19:15:56.413Z,99062.45
2019-03-03T19:19:06.680Z,99070.90
2019-03-03T19:21:34.118Z,99062.00
2019-03-03T19:24:02.116Z,99058.11
2019-03-03T19:26:29.652Z,99069.28
2019-03-03T19:28:56.805Z,99065.22
2019-03-03T19:31:23.964Z,99051.73
2019-03-03T19:33:53.093Z,99056.66
2019-03-03T19:36:20.138Z,99054.93
2019-03-03T19:38:47.353Z,99054.93
2019-03-03T19:41:14.893Z,99050.84
2019-03-03T19:43:42.224Z,99048.09
2019-03-03T19:46:09.487Z,99045.59
2019-03-03T19:48:37.356Z,99040.13
2019-03-03T19:51:05.328Z,99051.05
2019-03-03T19:53:32.802Z,99048.22
2019-03-03T19:56:00.388Z,99043.61
2019-03-03T19:58:27.166Z,99049.31
2019-03-03T20:00:55.903Z,99052.99
2019-03-03T20:03:23.342Z,99019.63
2019-03-03T20:05:50.446Z,99034.67
2019-03-03T20:08:17.126Z,99034.67
2019-03-03T20:10:45.211Z,99024.16
2019-03-03T20:13:12.347Z,99031.16
2019-03-03T20:15:40.105Z,99020.08
2019-03-03T20:18:08.422Z,99020.08
2019-03-03T20:20:35.946Z,99040.25
2019-03-03T20:23:03.219Z,99031.69
2019-03-03T20:25:30.016Z,99035.41
2019-03-03T20:27:57.177Z,99031.28
2019-03-03T20:30:24.502Z,99031.28
2019-03-03T20:32:51.405Z,99024.64
2019-03-03T20:35:18.595Z,99033.42
2019-03-03T20:37:46.825Z,99018.82
2019-03-03T20:40:15.191Z,99027.92
2019-03-03T20:42:43.775Z,99020.81
2019-03-03T20:45:14.509Z,99022.47
2019-03-03T20:47:41.282Z,99005.20
2019-03-03T20:50:10.209Z,99013.34
2019-03-03T20:52:36.897Z,99005.94
2019-03-03T20:55:05.469Z,99008.73
2019-03-03T20:57:32.519Z,98997.45
2019-03-03T20:59:59.764Z,98984.88
2019-03-03T21:02:27.920Z,98984.88
2019-03-03T21:04:55.581Z,98986.86
2019-03-03T21:07:22.757Z,98982.30
2019-03-03T21:09:51.122Z,98984.36
2019-03-03T21:12:18.060Z,98972.27
2019-03-03T21:14:45.401Z,98972.67
2019-03-03T21:17:12.085Z,98968.92
2019-03-03T21:19:38.768Z,98966.30
2019-03-03T21:22:06.878Z,98953.33
2019-03-03T21:24:34.177Z,98952.92
2019-03-03T21:27:01.928Z,98952.59
2019-03-03T21:29:30.787Z,98941.69
2019-03-03T21:31:57.721Z,98941.69
2019-03-03T21:34:25.290Z,98944.59
2019-03-03T21:36:51.958Z,98931.17
2019-03-03T21:39:19.514Z,98925.20
2019-03-03T21:41:47.367Z,98919.94
2019-03-03T21:44:14.485Z,98911.53
2019-03-03T21:46:42.036Z,98918.45
2019-03-03T21:49:09.405Z,98913.16
2019-03-03T21:51:36.550Z,98904.10
2019-03-03T21:54:04.225Z,98893.74
2019-03-03T21:56:31.176Z,98903.54
2019-03-03T21:58:57.885Z,98905.64
2019-03-03T22:01:25.458Z,98894.44
2019-03-03T22:03:52.927Z,98897.67
2019-03-03T22:06:19.949Z,98891.53
2019-03-03T22:08:46.858Z,98896.94
2019-03-03T22:11:13.769Z,98887.03
2019-03-03T22:13:42.039Z,98886.81
2019-03-03T22:16:09.657Z,98888.06
2019-03-03T22:18:37.867Z,98871.88
2019-03-03T22:21:05.483Z,98874.28
2019-03-03T22:23:33.456Z,98867.68
2019-03-03T22:26:01.055Z,98868.34
2019-03-03T22:28:28.925Z,98872.44
2019-03-03T22:30:55.609Z,98865.59
2019-03-03T22:33:23.815Z,98863.38
2019-03-03T22:35:51.277Z,98863.38
2019-03-03T22:38:21.202Z,98868.91
2019-03-03T22:40:48.880Z,98860.31
2019-03-03T22:43:16.330Z,98856.70
2019-03-03T22:45:43.902Z,98858.55
2019-03-03T22:48:11.134Z,98847.72
2019-03-03T22:50:38.598Z,98851.77
2019-03-03T22:53:24.728Z,98844.02
2019-03-03T22:56:13.037Z,98839.83
2019-03-03T22:58:56.976Z,98841.08
2019-03-03T23:01:51.478Z,98823.64
2019-03-03T23:05:08.253Z,98824.94
2019-03-03T23:08:04.697Z,98814.80
2019-03-03T23:10:53.581Z,98822.88
2019-03-03T23:13:37.219Z,98803.30
2019-03-03T23:17:01.883Z,98812.07
2019-03-03T23:20:09.706Z,98813.51
2019-03-03T23:23:03.444Z,98804.06
2019-03-03T23:25:47.522Z,98806.64
2019-03-03T23:28:14.859Z,98791.53
2019-03-03T23:30:42.817Z,98784.66
2019-03-03T23:33:11.339Z,98783.44
2019-03-03T23:35:38.889Z,98791.98
2019-03-03T23:38:06.558Z,98785.38
2019-03-03T23:40:34.222Z,98803.77
2019-03-03T23:43:01.474Z,98803.64
2019-03-03T23:45:28.821Z,98779.72
2019-03-03T23:47:56.122Z,98774.60
2019-03-03T23:50:24.970Z,98772.54
2019-03-03T23:52:53.341Z,98764.47
2019-03-03T23:55:21.000Z,98762.20
2019-03-03T23:57:48.471Z,98762.20
